Pays
Station

 

Conditions  météo  pour  Tetuan/Sania Ramel  -  Maroc    Maroc

  
11 °C
    
 
 

METAR pour Tetuan/Sania Ramel :

GMTN 212100Z 26010KT 9999 FEW020 11/07 Q1021 NOSIG

 

Voici le bulletin pour Tetuan/Sania Ramel - Maroc.
 
Le bulletin a été fait il y a 58 minutes, à 21:00 UTC .
Le vent soufflait à la vitesse de 5.1 mètres par seconde de Ouest (260°).
 
La température était de 11 °C, avec un point de rosée à 7 °C.
La pression atmosphérique était de 1021 hPa.
L'humidité relative était de 76.3%.
 
Il y avait 1 à 2/8ème de nébulosité à une hauteur de 610 mètres.
 
La visibilité globale était de supérieure à 10 kilomètres.
 

 
 
 

Pays :   A   B   C   D   E   F   G   H   I   J   K   L   M   N   O   P   Q   R   S   T   U   V   W   Y   Z

 

Partenaires :  Info Météo avec Met'info
Météo Marine avec MeteoMarine.net
Infos Site  |  Infos Légales  |  Crédits  |  Confidentialité
Contactez-nous  |  Ajouter aux favoris
© 2013-2019 METAR - Tous droits réservés